PWSweather.com
Personal Weather Stations
Station Observations
133525
French Quarters West Seneca , West Seneca, NY 14224

French Quarters West Seneca West Seneca, NY 14224

Lat: 42.850058, Lon: -78.799754

Elevation: 603

Station Type: Davis Vantage Vue pro2

http://westsenecaweather.com/

High Low Average
Temperature 43.0°F6.1°C 29.3°F-1.5°C 32.4°F0.2°C
Dew Point 40.8°F4.9°C 16.3°F-8.7°C 23.1°F-4.9°C
Winds 11.5 mph 18.5 kmh Calm Calm 5.0 mph S8.0 kmh S
Wind Gusts 21.9 mph35.2 kmh -- 9.0 mph14.5 kmh
Humidity 92% 50% 69%
Pressure 30.16 in1021.3 mb 29.81 in1009.5 mb -
Precipitation 0.12 in3.0 mm - -
Hour Temp Dew Point Humidity Winds Wind Gusts Pressure Precip Precip Rate Daily Precip Total
12:00 AM 50.3°F10.2°C 40.1°F4.5°C 68% 8.1 mph NNW13.0 kmh NNW 19.6 mph31.5 kmh 29.78 in1008.5 mb - 0.00 in0.0 mm 0.00 in0.0 mm
12:10 AM 50.6°F10.3°C 40.4°F4.7°C 68% 5.8 mph N9.3 kmh N 13.8 mph22.2 kmh 29.78 in1008.5 mb - 0.00 in0.0 mm 0.00 in0.0 mm
12:20 AM 49.3°F9.6°C 41.1°F5.1°C 73% 12.7 mph NE20.4 kmh NE 20.7 mph33.3 kmh 29.83 in1010.2 mb - 0.02 in0.5 mm 0.02 in0.5 mm
12:30 AM 43.6°F6.4°C 39.7°F4.3°C 86% 10.4 mph NE16.7 kmh NE 33.4 mph53.8 kmh 29.83 in1010.2 mb - 0.03 in0.8 mm 0.05 in1.3 mm
12:40 AM 42.4°F5.8°C 39.7°F4.3°C 90% 11.5 mph NE18.5 kmh NE 16.1 mph25.9 kmh 29.83 in1010.2 mb - 0.03 in0.8 mm 0.08 in2.0 mm
12:50 AM 42.4°F5.8°C 40.3°F4.6°C 92% 8.1 mph NE13.0 kmh NE 12.7 mph20.4 kmh 29.82 in1009.8 mb - 0.01 in0.3 mm 0.09 in2.3 mm
01:00 AM 43.0°F6.1°C 40.8°F4.9°C 92% 5.8 mph NE9.3 kmh NE 11.5 mph18.5 kmh 29.81 in1009.5 mb - 0.00 in0.0 mm 0.09 in2.3 mm
01:10 AM 43.0°F6.1°C 40.5°F4.7°C 91% 8.1 mph NE13.0 kmh NE 16.1 mph25.9 kmh 29.82 in1009.8 mb - 0.00 in0.0 mm 0.09 in2.3 mm
01:20 AM 42.1°F5.6°C 39.3°F4.1°C 90% 9.2 mph NE14.8 kmh NE 16.1 mph25.9 kmh 29.83 in1010.2 mb - 0.00 in0.0 mm 0.09 in2.3 mm
01:30 AM 40.7°F4.8°C 38.0°F3.3°C 90% 6.9 mph NE11.1 kmh NE 12.7 mph20.4 kmh 29.84 in1010.5 mb - 0.01 in0.3 mm 0.10 in2.5 mm
01:40 AM 39.8°F4.3°C 37.7°F3.2°C 92% 6.9 mph NE11.1 kmh NE 11.5 mph18.5 kmh 29.84 in1010.5 mb - 0.00 in0.0 mm 0.10 in2.5 mm
01:50 AM 39.3°F4.1°C 37.2°F2.9°C 92% 5.8 mph NNE9.3 kmh NNE 9.2 mph14.8 kmh 29.85 in1010.8 mb - 0.00 in0.0 mm 0.10 in2.5 mm
02:00 AM 39.0°F3.9°C 36.9°F2.7°C 92% 8.1 mph NE13.0 kmh NE 15.0 mph24.1 kmh 29.86 in1011.2 mb - 0.00 in0.0 mm 0.10 in2.5 mm
02:10 AM 39.4°F4.1°C 35.9°F2.2°C 87% 8.1 mph ENE13.0 kmh ENE 13.8 mph22.2 kmh 29.87 in1011.5 mb - 0.01 in0.3 mm 0.11 in2.8 mm
02:20 AM 38.7°F3.7°C 34.9°F1.6°C 86% 6.9 mph NE11.1 kmh NE 12.7 mph20.4 kmh 29.88 in1011.9 mb - 0.00 in0.0 mm 0.11 in2.8 mm
02:30 AM 38.3°F3.5°C 34.8°F1.6°C 87% 5.8 mph NE9.3 kmh NE 8.1 mph13.0 kmh 29.88 in1011.9 mb - 0.01 in0.3 mm 0.12 in3.0 mm
02:40 AM 37.8°F3.2°C 34.6°F1.4°C 88% 3.5 mph NE5.6 kmh NE 6.9 mph11.1 kmh 29.89 in1012.2 mb - 0.00 in0.0 mm 0.12 in3.0 mm
02:50 AM 37.6°F3.1°C 34.1°F1.2°C 87% 8.1 mph E13.0 kmh E 16.1 mph25.9 kmh 29.92 in1013.2 mb - 0.00 in0.0 mm 0.12 in3.0 mm
03:00 AM 36.1°F2.3°C 32.3°F0.2°C 86% 8.1 mph E13.0 kmh E 10.4 mph16.7 kmh 29.93 in1013.5 mb - 0.00 in0.0 mm 0.12 in3.0 mm
03:10 AM 35.5°F1.9°C 31.4°F-0.3°C 85% 8.1 mph E13.0 kmh E 11.5 mph18.5 kmh 29.93 in1013.5 mb - 0.00 in0.0 mm 0.12 in3.0 mm
03:20 AM 34.5°F1.4°C 29.2°F-1.6°C 81% 9.2 mph E14.8 kmh E 13.8 mph22.2 kmh 29.94 in1013.9 mb - 0.00 in0.0 mm 0.12 in3.0 mm
03:30 AM 33.9°F1.1°C 28.7°F-1.8°C 81% 6.9 mph E11.1 kmh E 9.2 mph14.8 kmh 29.95 in1014.2 mb - 0.00 in0.0 mm 0.12 in3.0 mm
03:40 AM 33.0°F0.6°C 27.2°F-2.7°C 79% 10.4 mph E16.7 kmh E 15.0 mph24.1 kmh 29.96 in1014.6 mb - 0.00 in0.0 mm 0.12 in3.0 mm
03:50 AM 32.4°F0.2°C 26.6°F-3.0°C 79% 10.4 mph E16.7 kmh E 16.1 mph25.9 kmh 29.98 in1015.2 mb - 0.00 in0.0 mm 0.12 in3.0 mm
04:00 AM 32.2°F0.1°C 26.4°F-3.1°C 79% 9.2 mph NE14.8 kmh NE 10.4 mph16.7 kmh 29.98 in1015.2 mb - 0.00 in0.0 mm 0.12 in3.0 mm
04:10 AM 32.0°F0.0°C 26.2°F-3.2°C 79% 10.4 mph ENE16.7 kmh ENE 12.7 mph20.4 kmh 29.99 in1015.6 mb - 0.00 in0.0 mm 0.12 in3.0 mm
04:20 AM 32.0°F0.0°C 25.9°F-3.4°C 78% 4.6 mph NE7.4 kmh NE 8.1 mph13.0 kmh 30.00 in1015.9 mb - 0.00 in0.0 mm 0.12 in3.0 mm
04:30 AM 31.9°F-0.1°C 25.8°F-3.4°C 78% 4.6 mph E7.4 kmh E 9.2 mph14.8 kmh 30.00 in1015.9 mb - 0.00 in0.0 mm 0.12 in3.0 mm
04:40 AM 31.7°F-0.2°C 25.3°F-3.7°C 77% 5.8 mph ENE9.3 kmh ENE 8.1 mph13.0 kmh 30.01 in1016.3 mb - 0.00 in0.0 mm 0.12 in3.0 mm
04:50 AM 31.5°F-0.3°C 24.8°F-4.0°C 76% 9.2 mph E14.8 kmh E 16.1 mph25.9 kmh 30.02 in1016.6 mb - 0.00 in0.0 mm 0.12 in3.0 mm
05:00 AM 31.3°F-0.4°C 24.6°F-4.1°C 76% 5.8 mph NE9.3 kmh NE 8.1 mph13.0 kmh 30.02 in1016.6 mb - 0.00 in0.0 mm 0.12 in3.0 mm
05:10 AM 31.2°F-0.4°C 24.2°F-4.3°C 75% 4.6 mph NE7.4 kmh NE 8.1 mph13.0 kmh 30.03 in1016.9 mb - 0.00 in0.0 mm 0.12 in3.0 mm
05:20 AM 31.0°F-0.6°C 24.0°F-4.4°C 75% 8.1 mph E13.0 kmh E 15.0 mph24.1 kmh 30.03 in1016.9 mb - 0.00 in0.0 mm 0.12 in3.0 mm
05:30 AM 30.7°F-0.7°C 23.1°F-4.9°C 73% 4.6 mph ENE7.4 kmh ENE 4.6 mph7.4 kmh 30.04 in1017.3 mb - 0.00 in0.0 mm 0.12 in3.0 mm
05:40 AM 30.6°F-0.8°C 23.0°F-5.0°C 73% 4.6 mph ENE7.4 kmh ENE 5.8 mph9.3 kmh 30.04 in1017.3 mb - 0.00 in0.0 mm 0.12 in3.0 mm
05:50 AM 30.5°F-0.8°C 22.5°F-5.3°C 72% 4.6 mph E7.4 kmh E 5.8 mph9.3 kmh 30.04 in1017.3 mb - 0.00 in0.0 mm 0.12 in3.0 mm
06:00 AM 30.5°F-0.8°C 22.5°F-5.3°C 72% 6.9 mph E11.1 kmh E 10.4 mph16.7 kmh 30.05 in1017.6 mb - 0.00 in0.0 mm 0.12 in3.0 mm
06:10 AM 30.5°F-0.8°C 22.6°F-5.2°C 72% 5.8 mph E9.3 kmh E 12.7 mph20.4 kmh 30.05 in1017.6 mb - 0.00 in0.0 mm 0.12 in3.0 mm
06:20 AM 30.4°F-0.9°C 21.8°F-5.7°C 70% 5.8 mph ENE9.3 kmh ENE 11.5 mph18.5 kmh 30.05 in1017.6 mb - 0.00 in0.0 mm 0.12 in3.0 mm
06:30 AM 30.4°F-0.9°C 22.1°F-5.5°C 71% 5.8 mph NE9.3 kmh NE 11.5 mph18.5 kmh 30.05 in1017.6 mb - 0.00 in0.0 mm 0.12 in3.0 mm
06:40 AM 30.3°F-0.9°C 21.3°F-5.9°C 69% 5.8 mph NE9.3 kmh NE 9.2 mph14.8 kmh 30.06 in1017.9 mb - 0.00 in0.0 mm 0.12 in3.0 mm
06:50 AM 30.1°F-1.1°C 20.1°F-6.6°C 66% 5.8 mph NE9.3 kmh NE 6.9 mph11.1 kmh 30.06 in1017.9 mb - 0.00 in0.0 mm 0.12 in3.0 mm
07:00 AM 30.1°F-1.1°C 20.1°F-6.6°C 66% 6.9 mph NNE11.1 kmh NNE 11.5 mph18.5 kmh 30.07 in1018.3 mb - 0.00 in0.0 mm 0.12 in3.0 mm
07:10 AM 29.8°F-1.2°C 18.4°F-7.6°C 62% 8.1 mph ENE13.0 kmh ENE 11.5 mph18.5 kmh 30.07 in1018.3 mb - 0.00 in0.0 mm 0.12 in3.0 mm
07:20 AM 29.7°F-1.3°C 19.0°F-7.2°C 64% 4.6 mph NE7.4 kmh NE 8.1 mph13.0 kmh 30.08 in1018.6 mb - 0.00 in0.0 mm 0.12 in3.0 mm
07:30 AM 29.8°F-1.2°C 19.1°F-7.2°C 64% 5.8 mph NE9.3 kmh NE 10.4 mph16.7 kmh 30.08 in1018.6 mb - 0.00 in0.0 mm 0.12 in3.0 mm
07:40 AM 29.7°F-1.3°C 20.1°F-6.6°C 67% 3.5 mph NE5.6 kmh NE 10.4 mph16.7 kmh 30.09 in1019.0 mb - 0.00 in0.0 mm 0.12 in3.0 mm
07:50 AM 29.7°F-1.3°C 19.0°F-7.2°C 64% 9.2 mph NE14.8 kmh NE 13.8 mph22.2 kmh 30.09 in1019.0 mb - 0.00 in0.0 mm 0.12 in3.0 mm
08:00 AM 29.7°F-1.3°C 19.0°F-7.2°C 64% 5.8 mph NE9.3 kmh NE 10.4 mph16.7 kmh 30.10 in1019.3 mb - 0.00 in0.0 mm 0.12 in3.0 mm
08:10 AM 29.5°F-1.4°C 19.2°F-7.1°C 65% 5.8 mph ENE9.3 kmh ENE 12.7 mph20.4 kmh 30.10 in1019.3 mb - 0.00 in0.0 mm 0.12 in3.0 mm
08:20 AM 29.7°F-1.3°C 19.4°F-7.0°C 65% 4.6 mph NE7.4 kmh NE 5.8 mph9.3 kmh 30.11 in1019.6 mb - 0.00 in0.0 mm 0.12 in3.0 mm
08:30 AM 29.8°F-1.2°C 19.1°F-7.2°C 64% 6.9 mph ENE11.1 kmh ENE 13.8 mph22.2 kmh 30.11 in1019.6 mb - 0.00 in0.0 mm 0.12 in3.0 mm
08:40 AM 29.7°F-1.3°C 19.4°F-7.0°C 65% 5.8 mph NE9.3 kmh NE 8.1 mph13.0 kmh 30.11 in1019.6 mb - 0.00 in0.0 mm 0.12 in3.0 mm
08:50 AM 29.7°F-1.3°C 20.4°F-6.4°C 68% 3.5 mph ENE5.6 kmh ENE 8.1 mph13.0 kmh 30.11 in1019.6 mb - 0.00 in0.0 mm 0.12 in3.0 mm
09:00 AM 29.3°F-1.5°C 20.4°F-6.4°C 69% 6.9 mph ENE11.1 kmh ENE 9.2 mph14.8 kmh 30.12 in1020.0 mb - 0.00 in0.0 mm 0.12 in3.0 mm
09:10 AM 29.3°F-1.5°C 21.1°F-6.1°C 71% 4.6 mph ENE7.4 kmh ENE 9.2 mph14.8 kmh 30.12 in1020.0 mb - 0.00 in0.0 mm 0.12 in3.0 mm
09:20 AM 30.0°F-1.1°C 21.1°F-6.1°C 69% 6.9 mph ENE11.1 kmh ENE 10.4 mph16.7 kmh 30.12 in1020.0 mb - 0.00 in0.0 mm 0.12 in3.0 mm
09:30 AM 30.5°F-0.8°C 20.2°F-6.6°C 65% 5.8 mph E9.3 kmh E 6.9 mph11.1 kmh 30.12 in1020.0 mb - 0.00 in0.0 mm 0.12 in3.0 mm
09:40 AM 30.4°F-0.9°C 21.1°F-6.1°C 68% 4.6 mph E7.4 kmh E 6.9 mph11.1 kmh 30.12 in1020.0 mb - 0.00 in0.0 mm 0.12 in3.0 mm
09:50 AM 30.0°F-1.1°C 21.8°F-5.7°C 71% 8.1 mph E13.0 kmh E 11.5 mph18.5 kmh 30.13 in1020.3 mb - 0.00 in0.0 mm 0.12 in3.0 mm
10:00 AM 29.8°F-1.2°C 21.9°F-5.6°C 72% 5.8 mph E9.3 kmh E 5.8 mph9.3 kmh 30.13 in1020.3 mb - 0.00 in0.0 mm 0.12 in3.0 mm
10:10 AM 30.3°F-0.9°C 22.4°F-5.3°C 72% 8.1 mph E13.0 kmh E 11.5 mph18.5 kmh 30.13 in1020.3 mb - 0.00 in0.0 mm 0.12 in3.0 mm
10:20 AM 30.6°F-0.8°C 23.0°F-5.0°C 73% 5.8 mph ENE9.3 kmh ENE 15.0 mph24.1 kmh 30.14 in1020.7 mb - 0.00 in0.0 mm 0.12 in3.0 mm
10:30 AM 30.9°F-0.6°C 19.4°F-7.0°C 62% 5.8 mph NE9.3 kmh NE 8.1 mph13.0 kmh 30.14 in1020.7 mb - 0.00 in0.0 mm 0.12 in3.0 mm
10:40 AM 31.6°F-0.2°C 19.3°F-7.1°C 60% 8.1 mph ENE13.0 kmh ENE 15.0 mph24.1 kmh 30.14 in1020.7 mb - 0.00 in0.0 mm 0.12 in3.0 mm
10:50 AM 32.0°F0.0°C 19.7°F-6.8°C 60% 9.2 mph ENE14.8 kmh ENE 16.1 mph25.9 kmh 30.14 in1020.7 mb - 0.00 in0.0 mm 0.12 in3.0 mm
11:00 AM 31.9°F-0.1°C 18.0°F-7.8°C 56% 6.9 mph NNE11.1 kmh NNE 5.8 mph9.3 kmh 30.14 in1020.7 mb - 0.00 in0.0 mm 0.12 in3.0 mm
11:10 AM 32.4°F0.2°C 19.2°F-7.1°C 58% 5.8 mph NE9.3 kmh NE 11.5 mph18.5 kmh 30.14 in1020.7 mb - 0.00 in0.0 mm 0.12 in3.0 mm
11:20 AM 32.6°F0.3°C 18.2°F-7.7°C 55% 4.6 mph NE7.4 kmh NE 9.2 mph14.8 kmh 30.15 in1021.0 mb - 0.00 in0.0 mm 0.12 in3.0 mm
11:30 AM 33.2°F0.7°C 18.8°F-7.3°C 55% 8.1 mph NE13.0 kmh NE 16.1 mph25.9 kmh 30.15 in1021.0 mb - 0.00 in0.0 mm 0.12 in3.0 mm
11:40 AM 33.2°F0.7°C 17.5°F-8.1°C 52% 6.9 mph NE11.1 kmh NE 12.7 mph20.4 kmh 30.15 in1021.0 mb - 0.00 in0.0 mm 0.12 in3.0 mm
11:50 AM 33.0°F0.6°C 17.3°F-8.2°C 52% 9.2 mph NE14.8 kmh NE 11.5 mph18.5 kmh 30.15 in1021.0 mb - 0.00 in0.0 mm 0.12 in3.0 mm
12:00 PM 33.0°F0.6°C 16.3°F-8.7°C 50% 8.1 mph NNE13.0 kmh NNE 17.3 mph27.8 kmh 30.15 in1021.0 mb - 0.00 in0.0 mm 0.12 in3.0 mm
12:10 PM 33.0°F0.6°C 17.7°F-7.9°C 53% 5.8 mph NE9.3 kmh NE 16.1 mph25.9 kmh 30.16 in1021.3 mb - 0.00 in0.0 mm 0.12 in3.0 mm
12:20 PM 32.9°F0.5°C 17.2°F-8.2°C 52% 8.1 mph NE13.0 kmh NE 12.7 mph20.4 kmh 30.15 in1021.0 mb - 0.00 in0.0 mm 0.12 in3.0 mm
12:30 PM 32.6°F0.3°C 17.8°F-7.9°C 54% 6.9 mph NE11.1 kmh NE 16.1 mph25.9 kmh 30.15 in1021.0 mb - 0.00 in0.0 mm 0.12 in3.0 mm
12:40 PM 32.7°F0.4°C 19.1°F-7.2°C 57% 8.1 mph N13.0 kmh N 12.7 mph20.4 kmh 30.16 in1021.3 mb - 0.00 in0.0 mm 0.12 in3.0 mm
12:50 PM 33.2°F0.7°C 19.2°F-7.1°C 56% 5.8 mph NE9.3 kmh NE 12.7 mph20.4 kmh 30.16 in1021.3 mb - 0.00 in0.0 mm 0.12 in3.0 mm
01:00 PM 32.8°F0.4°C 18.8°F-7.3°C 56% 5.8 mph N9.3 kmh N 10.4 mph16.7 kmh 30.16 in1021.3 mb - 0.00 in0.0 mm 0.12 in3.0 mm
01:10 PM 32.7°F0.4°C 19.9°F-6.7°C 59% 4.6 mph NE7.4 kmh NE 8.1 mph13.0 kmh 30.15 in1021.0 mb - 0.00 in0.0 mm 0.12 in3.0 mm
01:20 PM 33.6°F0.9°C 20.4°F-6.4°C 58% 8.1 mph N13.0 kmh N 15.0 mph24.1 kmh 30.15 in1021.0 mb - 0.00 in0.0 mm 0.12 in3.0 mm
01:30 PM 33.5°F0.8°C 19.5°F-6.9°C 56% 11.5 mph NE18.5 kmh NE 21.9 mph35.2 kmh 30.16 in1021.3 mb - 0.00 in0.0 mm 0.12 in3.0 mm
01:40 PM 33.5°F0.8°C 19.9°F-6.7°C 57% 6.9 mph N11.1 kmh N 10.4 mph16.7 kmh 30.16 in1021.3 mb - 0.00 in0.0 mm 0.12 in3.0 mm
01:50 PM 33.1°F0.6°C 18.7°F-7.4°C 55% 9.2 mph NNW14.8 kmh NNW 19.6 mph31.5 kmh 30.16 in1021.3 mb - 0.00 in0.0 mm 0.12 in3.0 mm
02:00 PM 33.6°F0.9°C 20.4°F-6.4°C 58% 6.9 mph N11.1 kmh N 13.8 mph22.2 kmh 30.15 in1021.0 mb - 0.00 in0.0 mm 0.12 in3.0 mm
02:10 PM 33.1°F0.6°C 19.9°F-6.7°C 58% 9.2 mph NNW14.8 kmh NNW 15.0 mph24.1 kmh 30.15 in1021.0 mb - 0.00 in0.0 mm 0.12 in3.0 mm
02:20 PM 33.8°F1.0°C 21.0°F-6.1°C 59% 5.8 mph NNW9.3 kmh NNW 12.7 mph20.4 kmh 30.15 in1021.0 mb - 0.00 in0.0 mm 0.12 in3.0 mm
02:30 PM 33.7°F0.9°C 20.9°F-6.2°C 59% 9.2 mph NW14.8 kmh NW 11.5 mph18.5 kmh 30.15 in1021.0 mb - 0.00 in0.0 mm 0.12 in3.0 mm
02:40 PM 33.9°F1.1°C 20.7°F-6.3°C 58% 8.1 mph N13.0 kmh N 11.5 mph18.5 kmh 30.15 in1021.0 mb - 0.00 in0.0 mm 0.12 in3.0 mm
02:50 PM 33.7°F0.9°C 20.0°F-6.7°C 57% 8.1 mph N13.0 kmh N 12.7 mph20.4 kmh 30.14 in1020.7 mb - 0.00 in0.0 mm 0.12 in3.0 mm
03:00 PM 33.8°F1.0°C 19.7°F-6.8°C 56% 8.1 mph NE13.0 kmh NE 15.0 mph24.1 kmh 30.14 in1020.7 mb - 0.00 in0.0 mm 0.12 in3.0 mm
03:10 PM 33.7°F0.9°C 20.0°F-6.7°C 57% 5.8 mph NNE9.3 kmh NNE 10.4 mph16.7 kmh 30.14 in1020.7 mb - 0.00 in0.0 mm 0.12 in3.0 mm
03:20 PM 34.3°F1.3°C 21.0°F-6.1°C 58% 5.8 mph N9.3 kmh N 11.5 mph18.5 kmh 30.14 in1020.7 mb - 0.00 in0.0 mm 0.12 in3.0 mm
03:30 PM 34.2°F1.2°C 20.9°F-6.2°C 58% 5.8 mph NNE9.3 kmh NNE 9.2 mph14.8 kmh 30.14 in1020.7 mb - 0.00 in0.0 mm 0.12 in3.0 mm
03:40 PM 34.7°F1.5°C 21.4°F-5.9°C 58% 6.9 mph N11.1 kmh N 13.8 mph22.2 kmh 30.15 in1021.0 mb - 0.00 in0.0 mm 0.12 in3.0 mm
03:50 PM 34.4°F1.3°C 19.9°F-6.7°C 55% 5.8 mph NNW9.3 kmh NNW 11.5 mph18.5 kmh 30.14 in1020.7 mb - 0.00 in0.0 mm 0.12 in3.0 mm
04:00 PM 34.5°F1.4°C 20.4°F-6.4°C 56% 8.1 mph NE13.0 kmh NE 12.7 mph20.4 kmh 30.14 in1020.7 mb - 0.00 in0.0 mm 0.12 in3.0 mm
04:10 PM 34.8°F1.6°C 20.3°F-6.5°C 55% 6.9 mph N11.1 kmh N 17.3 mph27.8 kmh 30.14 in1020.7 mb - 0.00 in0.0 mm 0.12 in3.0 mm
04:20 PM 34.7°F1.5°C 20.2°F-6.6°C 55% 8.1 mph N13.0 kmh N 8.1 mph13.0 kmh 30.14 in1020.7 mb - 0.00 in0.0 mm 0.12 in3.0 mm
04:30 PM 34.9°F1.6°C 21.2°F-6.0°C 57% 8.1 mph N13.0 kmh N 13.8 mph22.2 kmh 30.14 in1020.7 mb - 0.00 in0.0 mm 0.12 in3.0 mm
04:40 PM 34.2°F1.2°C 21.0°F-6.1°C 58% 8.1 mph N13.0 kmh N 16.1 mph25.9 kmh 30.14 in1020.7 mb - 0.00 in0.0 mm 0.12 in3.0 mm
04:50 PM 34.4°F1.3°C 20.7°F-6.3°C 57% 6.9 mph N11.1 kmh N 13.8 mph22.2 kmh 30.14 in1020.7 mb - 0.00 in0.0 mm 0.12 in3.0 mm
05:00 PM 34.1°F1.2°C 21.3°F-5.9°C 59% 8.1 mph N13.0 kmh N 13.8 mph22.2 kmh 30.14 in1020.7 mb - 0.00 in0.0 mm 0.12 in3.0 mm
05:10 PM 34.1°F1.2°C 21.3°F-5.9°C 59% 8.1 mph N13.0 kmh N 15.0 mph24.1 kmh 30.14 in1020.7 mb - 0.00 in0.0 mm 0.12 in3.0 mm
05:20 PM 33.6°F0.9°C 21.5°F-5.8°C 61% 5.8 mph N9.3 kmh N 6.9 mph11.1 kmh 30.15 in1021.0 mb - 0.00 in0.0 mm 0.12 in3.0 mm
05:30 PM 33.6°F0.9°C 22.7°F-5.2°C 64% 4.6 mph N7.4 kmh N 9.2 mph14.8 kmh 30.15 in1021.0 mb - 0.00 in0.0 mm 0.12 in3.0 mm
05:40 PM 33.4°F0.8°C 22.5°F-5.3°C 64% 4.6 mph N7.4 kmh N 10.4 mph16.7 kmh 30.15 in1021.0 mb - 0.00 in0.0 mm 0.12 in3.0 mm
05:50 PM 32.8°F0.4°C 22.3°F-5.4°C 65% 4.6 mph N7.4 kmh N 6.9 mph11.1 kmh 30.14 in1020.7 mb - 0.00 in0.0 mm 0.12 in3.0 mm
06:00 PM 32.6°F0.3°C 22.8°F-5.1°C 67% 6.9 mph N11.1 kmh N 10.4 mph16.7 kmh 30.14 in1020.7 mb - 0.00 in0.0 mm 0.12 in3.0 mm
06:10 PM 32.9°F0.5°C 23.1°F-4.9°C 67% 4.6 mph N7.4 kmh N 5.8 mph9.3 kmh 30.15 in1021.0 mb - 0.00 in0.0 mm 0.12 in3.0 mm
06:20 PM 32.7°F0.4°C 22.6°F-5.2°C 66% 5.8 mph N9.3 kmh N 9.2 mph14.8 kmh 30.14 in1020.7 mb - 0.00 in0.0 mm 0.12 in3.0 mm
06:30 PM 32.1°F0.1°C 23.0°F-5.0°C 69% 4.6 mph N7.4 kmh N 11.5 mph18.5 kmh 30.15 in1021.0 mb - 0.00 in0.0 mm 0.12 in3.0 mm
06:40 PM 31.9°F-0.1°C 23.2°F-4.9°C 70% 5.8 mph N9.3 kmh N 8.1 mph13.0 kmh 30.15 in1021.0 mb - 0.00 in0.0 mm 0.12 in3.0 mm
06:50 PM 31.6°F-0.2°C 22.9°F-5.1°C 70% 5.8 mph N9.3 kmh N 5.8 mph9.3 kmh 30.15 in1021.0 mb - 0.00 in0.0 mm 0.12 in3.0 mm
07:00 PM 31.4°F-0.3°C 22.7°F-5.2°C 70% 5.8 mph N9.3 kmh N 5.8 mph9.3 kmh 30.14 in1020.7 mb - 0.00 in0.0 mm 0.12 in3.0 mm
07:10 PM 31.3°F-0.4°C 23.3°F-4.8°C 72% 3.5 mph N5.6 kmh N 3.5 mph5.6 kmh 30.14 in1020.7 mb - 0.00 in0.0 mm 0.12 in3.0 mm
07:20 PM 31.2°F-0.4°C 23.2°F-4.9°C 72% 2.3 mph N3.7 kmh N 4.6 mph7.4 kmh 30.14 in1020.7 mb - 0.00 in0.0 mm 0.12 in3.0 mm
07:30 PM 30.9°F-0.6°C 22.6°F-5.2°C 71% 4.6 mph N7.4 kmh N 8.1 mph13.0 kmh 30.14 in1020.7 mb - 0.00 in0.0 mm 0.12 in3.0 mm
07:40 PM 30.9°F-0.6°C 22.9°F-5.1°C 72% 2.3 mph N3.7 kmh N 3.5 mph5.6 kmh 30.14 in1020.7 mb - 0.00 in0.0 mm 0.12 in3.0 mm
07:50 PM 30.8°F-0.7°C 22.5°F-5.3°C 71% 2.3 mph N3.7 kmh N 6.9 mph11.1 kmh 30.13 in1020.3 mb - 0.00 in0.0 mm 0.12 in3.0 mm
08:00 PM 30.8°F-0.7°C 22.5°F-5.3°C 71% 3.5 mph N5.6 kmh N 4.6 mph7.4 kmh 30.13 in1020.3 mb - 0.00 in0.0 mm 0.12 in3.0 mm
08:10 PM 30.7°F-0.7°C 22.7°F-5.2°C 72% 2.3 mph N3.7 kmh N 3.5 mph5.6 kmh 30.13 in1020.3 mb - 0.00 in0.0 mm 0.12 in3.0 mm
08:20 PM 30.5°F-0.8°C 22.9°F-5.1°C 73% 3.5 mph N5.6 kmh N 6.9 mph11.1 kmh 30.13 in1020.3 mb - 0.00 in0.0 mm 0.12 in3.0 mm
08:30 PM 30.5°F-0.8°C 23.2°F-4.9°C 74% 2.3 mph N3.7 kmh N 4.6 mph7.4 kmh 30.13 in1020.3 mb - 0.00 in0.0 mm 0.12 in3.0 mm
08:40 PM 30.4°F-0.9°C 23.1°F-4.9°C 74% 1.2 mph N1.9 kmh N 3.5 mph5.6 kmh 30.13 in1020.3 mb - 0.00 in0.0 mm 0.12 in3.0 mm
08:50 PM 30.3°F-0.9°C 23.3°F-4.8°C 75% 1.2 mph N1.9 kmh N 3.5 mph5.6 kmh 30.13 in1020.3 mb - 0.00 in0.0 mm 0.12 in3.0 mm
09:00 PM 30.1°F-1.1°C 23.1°F-4.9°C 75% 2.3 mph N3.7 kmh N 4.6 mph7.4 kmh 30.13 in1020.3 mb - 0.00 in0.0 mm 0.12 in3.0 mm
09:10 PM 30.0°F-1.1°C 23.4°F-4.8°C 76% 1.2 mph N1.9 kmh N 2.3 mph3.7 kmh 30.13 in1020.3 mb - 0.00 in0.0 mm 0.12 in3.0 mm
09:20 PM 29.9°F-1.2°C 23.3°F-4.8°C 76% Calm Calm 1.2 mph1.9 kmh 30.13 in1020.3 mb - 0.00 in0.0 mm 0.12 in3.0 mm
09:30 PM 29.9°F-1.2°C 23.3°F-4.8°C 76% 1.2 mph N1.9 kmh N 2.3 mph3.7 kmh 30.12 in1020.0 mb - 0.00 in0.0 mm 0.12 in3.0 mm
09:40 PM 29.9°F-1.2°C 23.0°F-5.0°C 75% 1.2 mph N1.9 kmh N 2.3 mph3.7 kmh 30.13 in1020.3 mb - 0.00 in0.0 mm 0.12 in3.0 mm
09:50 PM 29.9°F-1.2°C 22.6°F-5.2°C 74% 1.2 mph N1.9 kmh N 3.5 mph5.6 kmh 30.13 in1020.3 mb - 0.00 in0.0 mm 0.12 in3.0 mm
10:00 PM 30.0°F-1.1°C 22.4°F-5.3°C 73% 1.2 mph N1.9 kmh N 3.5 mph5.6 kmh 30.13 in1020.3 mb - 0.00 in0.0 mm 0.12 in3.0 mm
10:10 PM 30.0°F-1.1°C 22.4°F-5.3°C 73% 2.3 mph N3.7 kmh N 4.6 mph7.4 kmh 30.14 in1020.7 mb - 0.00 in0.0 mm 0.12 in3.0 mm
10:20 PM 30.1°F-1.1°C 22.2°F-5.4°C 72% Calm Calm 1.2 mph1.9 kmh 30.13 in1020.3 mb - 0.00 in0.0 mm 0.12 in3.0 mm
10:30 PM 30.1°F-1.1°C 22.2°F-5.4°C 72% 1.2 mph N1.9 kmh N 3.5 mph5.6 kmh 30.13 in1020.3 mb - 0.00 in0.0 mm 0.12 in3.0 mm
10:40 PM 30.2°F-1.0°C 22.3°F-5.4°C 72% 2.3 mph N3.7 kmh N 3.5 mph5.6 kmh 30.13 in1020.3 mb - 0.00 in0.0 mm 0.12 in3.0 mm
10:50 PM 30.2°F-1.0°C 22.3°F-5.4°C 72% 1.2 mph N1.9 kmh N 2.3 mph3.7 kmh 30.12 in1020.0 mb - 0.00 in0.0 mm 0.12 in3.0 mm
11:00 PM 30.2°F-1.0°C 22.6°F-5.2°C 73% 1.2 mph N1.9 kmh N 2.3 mph3.7 kmh 30.11 in1019.6 mb - 0.00 in0.0 mm 0.12 in3.0 mm
11:10 PM 30.2°F-1.0°C 23.2°F-4.9°C 75% Calm Calm -- 30.11 in1019.6 mb - 0.00 in0.0 mm 0.12 in3.0 mm
11:20 PM 30.2°F-1.0°C 23.2°F-4.9°C 75% 1.2 mph N1.9 kmh N 2.3 mph3.7 kmh 30.12 in1020.0 mb - 0.00 in0.0 mm 0.12 in3.0 mm
11:30 PM 30.2°F-1.0°C 23.5°F-4.7°C 76% 1.2 mph N1.9 kmh N 2.3 mph3.7 kmh 30.11 in1019.6 mb - 0.00 in0.0 mm 0.12 in3.0 mm
11:40 PM 30.2°F-1.0°C 23.5°F-4.7°C 76% 1.2 mph N1.9 kmh N 2.3 mph3.7 kmh 30.11 in1019.6 mb - 0.00 in0.0 mm 0.12 in3.0 mm
11:50 PM 30.2°F-1.0°C 23.5°F-4.7°C 76% 2.3 mph N3.7 kmh N 3.5 mph5.6 kmh 30.12 in1020.0 mb - 0.00 in0.0 mm 0.12 in3.0 mm